createdAt,value
2022-12-07T00:01:15.962Z,5.10
2022-12-07T00:03:44.537Z,5.00
2022-12-07T00:06:16.342Z,5.00
2022-12-07T00:08:43.846Z,5.00
2022-12-07T00:11:13.211Z,5.00
2022-12-07T00:13:41.163Z,5.00
2022-12-07T00:16:11.371Z,5.00
2022-12-07T00:18:38.621Z,5.00
2022-12-07T00:21:12.237Z,5.10
2022-12-07T00:23:40.416Z,5.10
2022-12-07T00:26:07.888Z,5.10
2022-12-07T00:28:35.338Z,5.10
2022-12-07T00:31:13.451Z,5.10
2022-12-07T00:33:40.290Z,5.10
2022-12-07T00:36:10.399Z,5.00
2022-12-07T00:38:38.405Z,5.00
2022-12-07T00:41:08.350Z,5.00
2022-12-07T00:43:35.118Z,4.90
2022-12-07T00:46:01.905Z,4.90
2022-12-07T00:48:28.789Z,5.00
2022-12-07T00:50:55.777Z,5.00
2022-12-07T00:53:22.525Z,4.90
2022-12-07T00:55:49.662Z,4.90
2022-12-07T00:58:16.756Z,4.90
2022-12-07T01:00:44.305Z,4.90
2022-12-07T01:03:14.394Z,4.90
2022-12-07T01:05:49.483Z,4.90
2022-12-07T01:08:16.272Z,4.90
2022-12-07T01:10:43.055Z,4.90
2022-12-07T01:13:09.734Z,4.90
2022-12-07T01:15:40.967Z,4.90
2022-12-07T01:18:07.674Z,4.90
2022-12-07T01:20:34.412Z,4.90
2022-12-07T01:23:01.176Z,4.90
2022-12-07T01:25:27.885Z,4.90
2022-12-07T01:27:54.572Z,4.90
2022-12-07T01:30:21.455Z,4.90
2022-12-07T01:32:48.174Z,4.90
2022-12-07T01:35:14.975Z,4.80
2022-12-07T01:37:41.736Z,4.80
2022-12-07T01:40:09.420Z,4.80
2022-12-07T01:42:36.281Z,4.80
2022-12-07T01:45:37.234Z,4.80
2022-12-07T01:48:05.256Z,4.80
2022-12-07T01:50:32.823Z,4.90
2022-12-07T01:53:02.135Z,4.90
2022-12-07T01:55:29.405Z,4.80
2022-12-07T01:57:57.248Z,4.80
2022-12-07T02:00:24.328Z,4.80
2022-12-07T02:03:22.956Z,4.80
2022-12-07T02:05:51.156Z,4.70
2022-12-07T02:08:19.539Z,4.70
2022-12-07T02:10:46.546Z,4.70
2022-12-07T02:13:17.581Z,4.80
2022-12-07T02:16:06.314Z,4.70
2022-12-07T02:18:51.874Z,4.80
2022-12-07T02:21:30.786Z,4.80
2022-12-07T02:24:20.751Z,4.70
2022-12-07T02:26:57.020Z,4.70
2022-12-07T02:29:44.951Z,4.70
2022-12-07T02:32:25.797Z,4.80
2022-12-07T02:35:13.819Z,4.80
2022-12-07T02:37:55.310Z,4.80
2022-12-07T02:40:26.086Z,4.80
2022-12-07T02:43:01.118Z,4.70
2022-12-07T02:45:30.536Z,4.70
2022-12-07T02:48:00.316Z,4.70
2022-12-07T02:50:27.366Z,4.70
2022-12-07T02:52:54.226Z,4.70
2022-12-07T02:55:27.264Z,4.60
2022-12-07T02:58:08.078Z,4.60
2022-12-07T03:00:45.419Z,4.60
2022-12-07T03:03:15.162Z,4.60
2022-12-07T03:05:56.837Z,4.60
2022-12-07T03:08:42.383Z,4.60
2022-12-07T03:11:21.764Z,4.50
2022-12-07T03:13:55.027Z,4.50
2022-12-07T03:16:23.819Z,4.40
2022-12-07T03:18:57.608Z,4.40
2022-12-07T03:21:38.141Z,4.30
2022-12-07T03:24:14.472Z,4.40
2022-12-07T03:26:52.585Z,4.30
2022-12-07T03:29:25.466Z,4.30
2022-12-07T03:32:00.223Z,4.40
2022-12-07T03:34:35.140Z,4.30
2022-12-07T03:37:06.710Z,4.30
2022-12-07T03:39:50.388Z,4.30
2022-12-07T03:42:17.343Z,4.30
2022-12-07T03:44:44.546Z,4.30
2022-12-07T03:47:30.710Z,4.30
2022-12-07T03:50:07.282Z,4.20
2022-12-07T03:52:54.723Z,4.30
2022-12-07T03:55:25.883Z,4.30
2022-12-07T03:57:57.143Z,4.30
2022-12-07T04:00:24.105Z,4.30
2022-12-07T04:02:54.041Z,4.30
2022-12-07T04:05:21.153Z,4.30
2022-12-07T04:07:47.926Z,4.30
2022-12-07T04:10:15.056Z,4.30
2022-12-07T04:12:41.796Z,4.30
2022-12-07T04:15:09.709Z,4.30
2022-12-07T04:17:36.508Z,4.30
2022-12-07T04:20:05.187Z,4.40
2022-12-07T04:22:32.154Z,4.40
2022-12-07T04:24:58.915Z,4.40
2022-12-07T04:27:25.754Z,4.40
2022-12-07T04:29:52.634Z,4.50
2022-12-07T04:32:19.358Z,4.40
2022-12-07T04:34:46.047Z,4.40
2022-12-07T04:37:12.815Z,4.50
2022-12-07T04:39:39.580Z,4.40
2022-12-07T04:42:06.327Z,4.40
2022-12-07T04:44:33.247Z,4.50
2022-12-07T04:47:00.014Z,4.50
2022-12-07T04:49:27.080Z,4.50
2022-12-07T04:51:54.090Z,4.50
2022-12-07T04:54:20.871Z,4.50
2022-12-07T04:56:48.042Z,4.50
2022-12-07T04:59:16.244Z,4.60
2022-12-07T05:01:43.347Z,4.60
2022-12-07T05:04:10.415Z,4.60
2022-12-07T05:06:37.161Z,4.60
2022-12-07T05:09:04.665Z,4.50
2022-12-07T05:11:40.595Z,4.60
2022-12-07T05:14:12.277Z,4.50
2022-12-07T05:16:39.496Z,4.50
2022-12-07T05:19:06.867Z,4.50
2022-12-07T05:21:33.760Z,4.50
2022-12-07T05:24:00.743Z,4.50
2022-12-07T05:26:28.291Z,4.50
2022-12-07T05:28:56.576Z,4.50
2022-12-07T05:31:25.166Z,4.50
2022-12-07T05:33:52.016Z,4.50
2022-12-07T05:36:18.757Z,4.50
2022-12-07T05:38:45.599Z,4.50
2022-12-07T05:41:34.795Z,4.50
2022-12-07T05:44:02.075Z,4.40
2022-12-07T05:46:28.858Z,4.40
2022-12-07T05:48:55.622Z,4.50
2022-12-07T05:51:22.539Z,4.40
2022-12-07T05:53:49.362Z,4.40
2022-12-07T05:56:16.160Z,4.40
2022-12-07T05:59:01.611Z,4.40
2022-12-07T06:01:28.609Z,4.50
2022-12-07T06:03:55.292Z,4.50
2022-12-07T06:06:22.323Z,4.40
2022-12-07T06:08:49.182Z,4.50
2022-12-07T06:11:34.582Z,4.50
2022-12-07T06:14:01.270Z,4.50
2022-12-07T06:16:28.106Z,4.50
2022-12-07T06:18:54.910Z,4.50
2022-12-07T06:21:21.659Z,4.50
2022-12-07T06:23:48.978Z,4.50
2022-12-07T06:26:15.755Z,4.50
2022-12-07T06:28:42.467Z,4.60
2022-12-07T06:31:13.939Z,4.60
2022-12-07T06:33:41.414Z,4.60
2022-12-07T06:36:08.649Z,4.60
2022-12-07T06:38:35.572Z,4.60
2022-12-07T06:41:02.215Z,4.50
2022-12-07T06:43:29.089Z,4.50
2022-12-07T06:45:55.918Z,4.50
2022-12-07T06:48:22.711Z,4.50
2022-12-07T06:50:54.721Z,4.60
2022-12-07T06:53:22.404Z,4.60
2022-12-07T06:55:49.247Z,4.60
2022-12-07T06:58:16.081Z,4.60
2022-12-07T07:00:43.787Z,4.60
2022-12-07T07:03:10.624Z,4.70
2022-12-07T07:05:37.405Z,4.70
2022-12-07T07:08:21.750Z,4.70
2022-12-07T07:10:49.383Z,4.70
2022-12-07T07:13:16.380Z,4.60
2022-12-07T07:15:43.425Z,4.70
2022-12-07T07:18:10.418Z,4.60
2022-12-07T07:20:38.107Z,4.60
2022-12-07T07:23:04.896Z,4.60
2022-12-07T07:25:31.643Z,4.70
2022-12-07T07:27:58.508Z,4.70
2022-12-07T07:30:25.464Z,4.60
2022-12-07T07:32:52.196Z,4.70
2022-12-07T07:35:18.975Z,4.60
2022-12-07T07:37:45.728Z,4.60
2022-12-07T07:40:12.799Z,4.70
2022-12-07T07:42:39.569Z,4.60
2022-12-07T07:45:06.813Z,4.60
2022-12-07T07:47:33.520Z,4.60
2022-12-07T07:50:00.432Z,4.60
2022-12-07T07:52:27.654Z,4.60
2022-12-07T07:54:54.326Z,4.70
2022-12-07T07:57:21.043Z,4.70
2022-12-07T07:59:47.752Z,4.70
2022-12-07T08:02:19.638Z,4.70
2022-12-07T08:04:47.008Z,4.80
2022-12-07T08:07:15.952Z,4.80
2022-12-07T08:09:42.934Z,4.80
2022-12-07T08:12:09.885Z,4.80
2022-12-07T08:14:36.643Z,4.80
2022-12-07T08:17:03.602Z,4.80
2022-12-07T08:19:30.486Z,4.90
2022-12-07T08:21:57.351Z,4.90
2022-12-07T08:24:25.921Z,5.00
2022-12-07T08:26:52.963Z,5.00
2022-12-07T08:29:19.835Z,5.00
2022-12-07T08:31:46.621Z,5.00
2022-12-07T08:34:14.485Z,5.00
2022-12-07T08:36:41.395Z,5.00
2022-12-07T08:39:31.053Z,5.00
2022-12-07T08:41:54.892Z,5.10
2022-12-07T08:44:22.410Z,5.10
2022-12-07T08:46:57.092Z,5.10
2022-12-07T08:49:32.650Z,5.10
2022-12-07T08:51:59.470Z,5.10
2022-12-07T08:54:26.809Z,5.10
2022-12-07T08:56:59.426Z,5.10
2022-12-07T08:59:27.831Z,5.00
2022-12-07T09:01:54.666Z,5.10
2022-12-07T09:04:21.727Z,5.10
2022-12-07T09:06:49.138Z,5.10
2022-12-07T09:09:16.387Z,5.20
2022-12-07T09:11:43.199Z,5.10
2022-12-07T09:14:09.901Z,5.10
2022-12-07T09:16:36.830Z,5.20
2022-12-07T09:19:03.605Z,5.20
2022-12-07T09:21:30.387Z,5.20
2022-12-07T09:23:57.297Z,5.10
2022-12-07T09:26:24.075Z,5.10
2022-12-07T09:28:50.753Z,5.10
2022-12-07T09:31:25.900Z,5.20
2022-12-07T09:34:01.411Z,5.20
2022-12-07T09:36:30.054Z,5.20
2022-12-07T09:38:56.908Z,5.20
2022-12-07T09:41:26.071Z,5.30
2022-12-07T09:43:54.086Z,5.30
2022-12-07T09:46:21.810Z,5.40
2022-12-07T09:48:51.208Z,5.40
2022-12-07T09:51:24.594Z,5.40
2022-12-07T09:53:53.648Z,5.40
2022-12-07T09:56:21.472Z,5.40
2022-12-07T09:58:49.446Z,5.40
2022-12-07T10:01:21.566Z,5.50
2022-12-07T10:03:54.332Z,5.60
2022-12-07T10:06:21.679Z,5.60
2022-12-07T10:08:48.950Z,5.60
2022-12-07T10:11:17.144Z,5.60
2022-12-07T10:13:54.804Z,5.70
2022-12-07T10:16:28.806Z,5.70
2022-12-07T10:18:56.189Z,5.80
2022-12-07T10:21:25.287Z,5.80
2022-12-07T10:24:02.893Z,5.70
2022-12-07T10:26:31.720Z,5.70
2022-12-07T10:29:22.061Z,5.70
2022-12-07T10:31:58.795Z,5.70
2022-12-07T10:34:25.596Z,5.70
2022-12-07T10:36:53.937Z,5.80
2022-12-07T10:39:23.274Z,5.80
2022-12-07T10:41:57.398Z,5.80
2022-12-07T10:44:30.190Z,5.70
2022-12-07T10:46:59.837Z,5.80
2022-12-07T10:49:41.550Z,5.70
2022-12-07T10:52:35.001Z,5.80
2022-12-07T10:55:01.928Z,5.70
2022-12-07T10:57:28.764Z,5.80
2022-12-07T11:00:02.078Z,5.80
2022-12-07T11:02:37.084Z,5.90
2022-12-07T11:05:18.890Z,5.90
2022-12-07T11:08:06.632Z,5.90
2022-12-07T11:10:47.314Z,5.90
2022-12-07T11:13:34.486Z,6.00
2022-12-07T11:16:25.453Z,6.00
2022-12-07T11:19:15.351Z,6.10
2022-12-07T11:21:49.349Z,6.10
2022-12-07T11:24:20.163Z,6.20
2022-12-07T11:27:15.208Z,6.20
2022-12-07T11:29:41.867Z,6.20
2022-12-07T11:32:20.188Z,6.30
2022-12-07T11:35:06.003Z,6.30
2022-12-07T11:37:38.139Z,6.40
2022-12-07T11:40:19.513Z,6.30
2022-12-07T11:43:08.554Z,6.20
2022-12-07T11:45:38.235Z,6.10
2022-12-07T11:48:21.276Z,6.10
2022-12-07T11:50:58.048Z,6.10
2022-12-07T11:53:30.798Z,6.10
2022-12-07T11:56:08.994Z,6.10
2022-12-07T11:58:41.734Z,6.10
2022-12-07T12:01:31.214Z,6.00
2022-12-07T12:04:12.256Z,6.00
2022-12-07T12:06:40.466Z,5.90
2022-12-07T12:14:56.571Z,5.90
2022-12-07T12:17:29.163Z,5.90
2022-12-07T12:20:27.363Z,5.80
2022-12-07T12:23:18.031Z,5.90
2022-12-07T12:25:51.523Z,6.00
2022-12-07T12:28:29.839Z,6.00
2022-12-07T12:31:13.835Z,6.10
2022-12-07T12:33:52.275Z,6.20
2022-12-07T12:36:25.496Z,6.10
2022-12-07T12:39:07.940Z,6.10
2022-12-07T12:42:00.436Z,6.20
2022-12-07T12:44:30.029Z,6.10
2022-12-07T12:46:58.779Z,6.10
2022-12-07T12:49:28.456Z,6.10
2022-12-07T12:52:22.531Z,6.00
2022-12-07T12:54:58.242Z,6.10
2022-12-07T12:57:29.798Z,6.10
2022-12-07T12:59:56.437Z,6.10
2022-12-07T13:02:35.963Z,6.20
2022-12-07T13:05:08.312Z,6.20
2022-12-07T13:07:51.001Z,6.10
2022-12-07T13:10:33.585Z,6.00
2022-12-07T13:13:23.532Z,6.00
2022-12-07T13:15:55.618Z,6.00
2022-12-07T13:18:28.340Z,6.10
2022-12-07T13:21:24.011Z,6.00
2022-12-07T13:23:51.308Z,6.00
2022-12-07T13:26:23.830Z,6.00
2022-12-07T13:28:53.513Z,6.10
2022-12-07T13:31:50.773Z,6.20
2022-12-07T13:34:40.590Z,6.20
2022-12-07T13:37:33.695Z,6.20
2022-12-07T13:40:21.373Z,6.20
2022-12-07T13:42:48.214Z,6.20
2022-12-07T13:45:48.350Z,6.20
2022-12-07T13:48:44.117Z,6.30
2022-12-07T13:51:25.042Z,6.30
2022-12-07T13:53:59.973Z,6.30
2022-12-07T13:56:34.909Z,6.20
2022-12-07T13:59:02.082Z,6.30
2022-12-07T14:01:31.939Z,6.30
2022-12-07T14:04:29.907Z,6.30
2022-12-07T14:06:56.766Z,6.30
2022-12-07T14:09:26.360Z,6.20
2022-12-07T14:11:58.271Z,6.20
2022-12-07T14:14:36.325Z,6.20
2022-12-07T14:17:23.570Z,6.20
2022-12-07T14:19:57.654Z,6.10
2022-12-07T14:22:33.439Z,6.10
2022-12-07T14:25:21.331Z,6.10
2022-12-07T14:27:49.813Z,6.00
2022-12-07T14:30:18.478Z,6.10
2022-12-07T14:32:49.574Z,6.10
2022-12-07T14:35:18.090Z,6.00
2022-12-07T14:37:47.931Z,6.00
2022-12-07T14:40:23.415Z,6.00
2022-12-07T14:42:55.615Z,6.00
2022-12-07T14:45:23.901Z,6.00
2022-12-07T14:53:34.730Z,5.90
2022-12-07T14:56:01.606Z,5.90
2022-12-07T14:58:28.349Z,5.80
2022-12-07T15:00:55.030Z,5.70
2022-12-07T15:03:21.855Z,5.70
2022-12-07T15:05:48.682Z,5.60
2022-12-07T15:08:15.502Z,5.50
2022-12-07T15:10:42.362Z,5.40
2022-12-07T15:13:28.340Z,5.30
2022-12-07T15:15:56.174Z,5.20
2022-12-07T15:18:24.264Z,5.20
2022-12-07T15:20:52.450Z,5.20
2022-12-07T15:23:19.267Z,5.10
2022-12-07T15:25:48.594Z,5.10
2022-12-07T15:28:15.765Z,5.10
2022-12-07T15:30:44.453Z,5.10
2022-12-07T15:33:12.613Z,5.20
2022-12-07T15:35:41.339Z,5.20
2022-12-07T15:38:08.052Z,5.20
2022-12-07T15:40:35.118Z,5.20
2022-12-07T15:43:02.535Z,5.30
2022-12-07T15:45:29.239Z,5.20
2022-12-07T15:48:26.865Z,5.20
2022-12-07T15:50:42.961Z,5.30
2022-12-07T15:53:09.695Z,5.30
2022-12-07T15:55:39.078Z,5.30
2022-12-07T15:58:05.951Z,5.30
2022-12-07T16:00:33.007Z,5.30
2022-12-07T16:02:59.900Z,5.30
2022-12-07T16:05:26.684Z,5.30
2022-12-07T16:07:53.461Z,5.30
2022-12-07T16:10:20.206Z,5.20
2022-12-07T16:12:47.009Z,5.00
2022-12-07T16:15:13.723Z,5.00
2022-12-07T16:17:40.479Z,4.90
2022-12-07T16:20:09.133Z,4.90
2022-12-07T16:22:35.998Z,4.80
2022-12-07T16:25:03.940Z,4.80
2022-12-07T16:27:30.769Z,4.80
2022-12-07T16:29:57.459Z,4.70
2022-12-07T16:32:24.329Z,4.70
2022-12-07T16:34:51.028Z,4.70
2022-12-07T16:37:17.761Z,4.70
2022-12-07T16:39:44.542Z,4.80
2022-12-07T16:42:11.383Z,4.80
2022-12-07T16:44:38.175Z,4.80
2022-12-07T16:47:05.079Z,4.80
2022-12-07T16:49:31.870Z,4.80
2022-12-07T16:54:45.539Z,4.90
2022-12-07T16:57:15.505Z,4.90
2022-12-07T16:59:46.927Z,4.90
2022-12-07T17:02:13.744Z,4.90
2022-12-07T17:04:43.425Z,4.90
2022-12-07T17:07:10.546Z,4.90
2022-12-07T17:09:37.990Z,4.90
2022-12-07T17:12:06.179Z,4.90
2022-12-07T17:14:51.529Z,4.80
2022-12-07T17:17:18.222Z,4.80
2022-12-07T17:19:45.163Z,4.70
2022-12-07T17:22:13.514Z,4.80
2022-12-07T17:24:40.435Z,4.80
2022-12-07T17:27:07.388Z,4.70
2022-12-07T17:29:34.368Z,4.80
2022-12-07T17:32:01.092Z,4.80
2022-12-07T17:34:27.844Z,4.80
2022-12-07T17:36:55.657Z,4.80
2022-12-07T17:39:22.997Z,4.90
2022-12-07T17:42:08.652Z,4.90
2022-12-07T17:44:35.402Z,4.90
2022-12-07T17:47:03.914Z,4.90
2022-12-07T17:49:31.078Z,4.80
2022-12-07T17:52:16.622Z,4.80
2022-12-07T17:54:43.494Z,4.70
2022-12-07T17:57:10.352Z,4.60
2022-12-07T17:59:37.205Z,4.60
2022-12-07T18:02:04.289Z,4.50
2022-12-07T18:04:31.081Z,4.50
2022-12-07T18:06:58.501Z,4.50
2022-12-07T18:09:25.291Z,4.40
2022-12-07T18:11:51.999Z,4.40
2022-12-07T18:14:18.852Z,4.40
2022-12-07T18:16:45.828Z,4.40
2022-12-07T18:19:14.741Z,4.30
2022-12-07T18:21:42.103Z,4.30
2022-12-07T18:24:13.763Z,4.30
2022-12-07T18:26:41.359Z,4.30
2022-12-07T18:29:10.487Z,4.30
2022-12-07T18:31:37.537Z,4.30
2022-12-07T18:34:08.669Z,4.30
2022-12-07T18:36:35.330Z,4.40
2022-12-07T18:39:05.443Z,4.40
2022-12-07T18:41:32.212Z,4.40
2022-12-07T18:43:59.247Z,4.40
2022-12-07T18:46:27.001Z,4.30
2022-12-07T18:48:57.023Z,4.40
2022-12-07T18:51:28.781Z,4.40
2022-12-07T18:54:00.343Z,4.40
2022-12-07T18:56:27.603Z,4.40
2022-12-07T18:59:18.186Z,4.40
2022-12-07T19:01:50.559Z,4.40
2022-12-07T19:04:17.826Z,4.40
2022-12-07T19:06:46.297Z,4.40
2022-12-07T19:09:13.589Z,4.40
2022-12-07T19:11:49.332Z,4.40
2022-12-07T19:14:26.229Z,4.50
2022-12-07T19:16:56.101Z,4.50
2022-12-07T19:19:25.161Z,4.50
2022-12-07T19:21:52.582Z,4.50
2022-12-07T19:24:23.282Z,4.50
2022-12-07T19:26:51.087Z,4.60
2022-12-07T19:29:17.776Z,4.60
2022-12-07T19:31:44.580Z,4.60
2022-12-07T19:34:13.373Z,4.60
2022-12-07T19:36:40.403Z,4.70
2022-12-07T19:39:12.857Z,4.60
2022-12-07T19:41:43.712Z,4.60
2022-12-07T19:44:16.718Z,4.60
2022-12-07T19:46:46.525Z,4.60
2022-12-07T19:49:16.165Z,4.60
2022-12-07T19:51:44.950Z,4.60
2022-12-07T19:54:14.699Z,4.60
2022-12-07T19:56:42.987Z,4.60
2022-12-07T19:59:10.687Z,4.60
2022-12-07T20:01:40.431Z,4.60
2022-12-07T20:04:12.926Z,4.70
2022-12-07T20:06:40.260Z,4.50
2022-12-07T20:09:07.024Z,4.50
2022-12-07T20:11:52.258Z,4.50
2022-12-07T20:14:19.008Z,4.50
2022-12-07T20:16:45.854Z,4.50
2022-12-07T20:19:14.229Z,4.50
2022-12-07T20:21:42.407Z,4.50
2022-12-07T20:24:12.818Z,4.50
2022-12-07T20:26:41.757Z,4.50
2022-12-07T20:29:16.313Z,4.50
2022-12-07T20:31:45.290Z,4.50
2022-12-07T20:34:12.496Z,4.50
2022-12-07T20:36:39.347Z,4.50
2022-12-07T20:39:07.058Z,4.50
2022-12-07T20:41:53.310Z,4.50
2022-12-07T20:44:20.436Z,4.50
2022-12-07T20:46:47.482Z,4.50
2022-12-07T20:49:17.006Z,4.60
2022-12-07T20:51:44.818Z,4.60
2022-12-07T20:54:12.542Z,4.60
2022-12-07T20:56:39.746Z,4.60
2022-12-07T20:59:09.893Z,4.60
2022-12-07T21:01:37.349Z,4.60
2022-12-07T21:04:04.698Z,4.60
2022-12-07T21:06:31.432Z,4.60
2022-12-07T21:08:59.846Z,4.60
2022-12-07T21:11:28.889Z,4.60
2022-12-07T21:13:55.653Z,4.60
2022-12-07T21:16:28.459Z,4.60
2022-12-07T21:18:56.895Z,4.60
2022-12-07T21:21:24.594Z,4.60
2022-12-07T21:23:58.126Z,4.60
2022-12-07T21:26:28.466Z,4.60
2022-12-07T21:28:57.224Z,4.60
2022-12-07T21:31:24.379Z,4.60
2022-12-07T21:33:51.532Z,4.60
2022-12-07T21:36:21.454Z,4.60
2022-12-07T21:38:49.481Z,4.60
2022-12-07T21:41:22.368Z,4.40
2022-12-07T21:43:49.173Z,4.40
2022-12-07T21:46:17.645Z,4.40
2022-12-07T21:48:49.917Z,4.40
2022-12-07T21:51:16.704Z,4.50
2022-12-07T21:53:43.851Z,4.40
2022-12-07T21:56:16.805Z,4.40
2022-12-07T21:58:44.005Z,4.40
2022-12-07T22:01:25.990Z,4.50
2022-12-07T22:03:53.829Z,4.50
2022-12-07T22:06:23.800Z,4.50
2022-12-07T22:08:52.014Z,4.50
2022-12-07T22:11:19.082Z,4.50
2022-12-07T22:14:09.901Z,4.50
2022-12-07T22:16:38.026Z,4.60
2022-12-07T22:19:05.267Z,4.60
2022-12-07T22:21:32.441Z,4.60
2022-12-07T22:23:59.358Z,4.60
2022-12-07T22:26:26.338Z,4.60
2022-12-07T22:28:53.660Z,4.60
2022-12-07T22:31:21.737Z,4.60
2022-12-07T22:33:49.372Z,4.60
2022-12-07T22:36:16.600Z,4.60
2022-12-07T22:38:43.881Z,4.50
2022-12-07T22:41:18.283Z,4.50
2022-12-07T22:43:45.024Z,4.50
2022-12-07T22:46:11.843Z,4.50
2022-12-07T22:48:38.577Z,4.50
2022-12-07T22:51:05.444Z,4.50
2022-12-07T22:53:32.591Z,4.50
2022-12-07T22:55:59.303Z,4.50
2022-12-07T22:58:26.102Z,4.50
2022-12-07T23:00:53.490Z,4.50
2022-12-07T23:03:20.322Z,4.50
2022-12-07T23:05:49.048Z,4.40
2022-12-07T23:08:16.516Z,4.40
2022-12-07T23:10:46.316Z,4.40
2022-12-07T23:13:33.544Z,4.40
2022-12-07T23:16:01.429Z,4.40
2022-12-07T23:18:28.341Z,4.40
2022-12-07T23:20:58.099Z,4.40
2022-12-07T23:23:25.356Z,4.40
2022-12-07T23:25:52.670Z,4.40
2022-12-07T23:28:19.647Z,4.40
2022-12-07T23:30:46.476Z,4.40
2022-12-07T23:33:13.306Z,4.40
2022-12-07T23:35:40.015Z,4.40
2022-12-07T23:38:06.841Z,4.40
2022-12-07T23:40:33.564Z,4.40
2022-12-07T23:43:00.266Z,4.50
2022-12-07T23:45:27.063Z,4.50
2022-12-07T23:47:53.785Z,4.50
2022-12-07T23:50:20.485Z,4.50
2022-12-07T23:52:47.350Z,4.60
2022-12-07T23:55:14.113Z,4.50
2022-12-07T23:57:40.803Z,4.50
